createdAt,value
2022-11-19T00:02:20.445Z,0.00
2022-11-19T00:03:25.278Z,0.00
2022-11-19T00:04:41.166Z,0.00
2022-11-19T00:07:15.683Z,0.00
2022-11-19T00:08:20.298Z,0.00
2022-11-19T00:09:27.780Z,0.00
2022-11-19T00:10:44.587Z,0.00
2022-11-19T00:11:47.966Z,0.00
2022-11-19T00:14:16.433Z,0.00
2022-11-19T00:15:20.054Z,0.00
2022-11-19T00:16:29.253Z,0.00
2022-11-19T00:17:35.006Z,0.00
2022-11-19T00:18:39.109Z,0.00
2022-11-19T00:21:07.188Z,0.00
2022-11-19T00:22:17.841Z,0.00
2022-11-19T00:23:23.053Z,0.00
2022-11-19T00:24:28.625Z,0.00
2022-11-19T00:25:34.479Z,0.00
2022-11-19T00:27:59.044Z,0.00
2022-11-19T00:29:02.932Z,0.00
2022-11-19T00:30:19.956Z,0.00
2022-11-19T00:31:14.114Z,0.00
2022-11-19T00:32:23.040Z,0.00
2022-11-19T00:33:31.283Z,0.00
2022-11-19T00:34:38.608Z,0.50
2022-11-19T00:35:46.224Z,0.00
2022-11-19T00:36:50.611Z,0.00
2022-11-19T00:39:28.713Z,0.00
2022-11-19T00:40:35.793Z,0.00
2022-11-19T00:41:43.565Z,0.00
2022-11-19T00:44:08.667Z,0.00
2022-11-19T00:45:25.804Z,0.00
2022-11-19T00:50:35.855Z,0.50
2022-11-19T00:53:18.172Z,0.00
2022-11-19T00:54:29.632Z,0.00
2022-11-19T00:58:19.786Z,0.00
2022-11-19T00:59:23.886Z,0.25
2022-11-19T01:00:28.972Z,0.00
2022-11-19T01:01:51.305Z,0.00
2022-11-19T01:02:58.656Z,0.00
2022-11-19T01:04:16.811Z,0.00
2022-11-19T01:05:30.351Z,0.00
2022-11-19T01:09:29.669Z,0.50
2022-11-19T01:15:59.114Z,0.00
2022-11-19T01:21:13.185Z,0.50
2022-11-19T01:22:27.203Z,0.00
2022-11-19T01:23:34.877Z,0.50
2022-11-19T01:27:28.271Z,0.25
2022-11-19T01:29:54.880Z,0.50
2022-11-19T01:31:00.826Z,0.50
2022-11-19T01:33:26.978Z,0.00
2022-11-19T01:34:30.658Z,0.00
2022-11-19T01:35:40.930Z,0.00
2022-11-19T01:38:08.873Z,0.50
2022-11-19T01:39:18.216Z,0.50
2022-11-19T01:40:26.173Z,0.00
2022-11-19T01:41:32.782Z,0.00
2022-11-19T01:45:23.571Z,0.00
2022-11-19T01:47:49.407Z,0.00
2022-11-19T01:50:26.484Z,0.00
2022-11-19T01:51:58.958Z,0.00
2022-11-19T01:52:53.422Z,0.50
2022-11-19T01:55:28.175Z,0.00
2022-11-19T01:56:35.489Z,0.50
2022-11-19T01:57:51.415Z,0.50
2022-11-19T02:00:15.603Z,0.00
2022-11-19T02:01:35.020Z,0.00
2022-11-19T02:02:39.725Z,0.00
2022-11-19T02:03:45.174Z,0.00
2022-11-19T02:07:29.503Z,0.00
2022-11-19T02:11:28.581Z,0.00
2022-11-19T02:12:48.643Z,0.00
2022-11-19T02:13:54.511Z,0.00
2022-11-19T02:17:40.514Z,0.50
2022-11-19T02:20:07.912Z,0.00
2022-11-19T02:21:11.857Z,0.00
2022-11-19T02:23:43.173Z,0.00
2022-11-19T02:24:43.327Z,0.00
2022-11-19T02:25:47.102Z,0.00
2022-11-19T02:26:50.926Z,0.00
2022-11-19T02:30:20.503Z,0.50
2022-11-19T02:31:25.960Z,0.00
2022-11-19T02:32:29.657Z,0.00
2022-11-19T02:33:33.451Z,0.00
2022-11-19T02:34:37.462Z,0.00
2022-11-19T02:37:04.727Z,0.00
2022-11-19T02:38:20.046Z,0.00
2022-11-19T02:39:23.150Z,0.00
2022-11-19T02:40:28.485Z,0.00
2022-11-19T02:42:54.919Z,0.00
2022-11-19T02:43:58.713Z,0.00
2022-11-19T02:45:02.636Z,0.00
2022-11-19T02:46:05.889Z,0.00
2022-11-19T02:47:10.620Z,0.00
2022-11-19T02:48:13.910Z,0.00
2022-11-19T02:49:18.285Z,0.00
2022-11-19T02:50:22.912Z,0.00
2022-11-19T02:51:26.816Z,0.00
2022-11-19T02:52:31.737Z,0.00
2022-11-19T02:53:35.439Z,0.00
2022-11-19T02:54:40.364Z,0.00
2022-11-19T02:55:43.648Z,0.00
2022-11-19T02:56:47.331Z,0.00
2022-11-19T02:57:51.336Z,0.00
2022-11-19T02:58:55.436Z,0.00
2022-11-19T03:00:02.259Z,0.00
2022-11-19T03:01:12.529Z,0.00
2022-11-19T03:02:16.391Z,0.00
2022-11-19T03:03:20.055Z,0.00
2022-11-19T03:05:44.430Z,0.00
2022-11-19T03:06:47.938Z,0.00
2022-11-19T03:07:55.731Z,0.25
2022-11-19T03:08:59.195Z,0.00
2022-11-19T03:10:02.692Z,0.00
2022-11-19T03:11:06.505Z,0.00
2022-11-19T03:12:09.887Z,0.00
2022-11-19T03:13:13.153Z,0.00
2022-11-19T03:14:17.980Z,0.00
2022-11-19T03:15:21.283Z,0.50
2022-11-19T03:16:26.083Z,0.00
2022-11-19T03:17:29.490Z,0.00
2022-11-19T03:19:56.094Z,0.00
2022-11-19T03:20:59.507Z,0.00
2022-11-19T03:22:02.881Z,0.00
2022-11-19T03:23:07.304Z,0.00
2022-11-19T03:24:10.779Z,0.00
2022-11-19T03:25:14.585Z,0.00
2022-11-19T03:26:17.666Z,0.00
2022-11-19T03:27:21.151Z,0.00
2022-11-19T03:28:24.739Z,0.00
2022-11-19T03:30:48.815Z,0.00
2022-11-19T03:31:52.825Z,0.00
2022-11-19T03:32:56.316Z,0.00
2022-11-19T03:33:59.791Z,0.00
2022-11-19T03:35:05.335Z,0.00
2022-11-19T03:36:09.127Z,0.25
2022-11-19T03:37:13.144Z,0.00
2022-11-19T03:38:16.615Z,0.00
2022-11-19T03:39:20.774Z,0.00
2022-11-19T03:40:24.514Z,0.00
2022-11-19T03:41:28.628Z,0.00
2022-11-19T03:42:32.229Z,0.00
2022-11-19T03:43:37.616Z,0.00
2022-11-19T03:44:41.342Z,0.00
2022-11-19T03:45:45.342Z,0.00
2022-11-19T03:46:48.652Z,0.00
2022-11-19T03:47:52.638Z,0.00
2022-11-19T03:48:56.730Z,0.00
2022-11-19T03:50:00.347Z,0.00
2022-11-19T03:51:04.018Z,0.00
2022-11-19T03:52:08.226Z,0.00
2022-11-19T03:53:12.218Z,0.00
2022-11-19T03:54:15.923Z,0.25
2022-11-19T03:55:19.825Z,0.00
2022-11-19T03:56:23.748Z,0.00
2022-11-19T03:57:27.316Z,0.50
2022-11-19T03:58:31.222Z,0.00
2022-11-19T03:59:35.099Z,0.00
2022-11-19T04:00:40.207Z,0.25
2022-11-19T04:01:43.551Z,0.00
2022-11-19T04:02:46.710Z,0.00
2022-11-19T04:03:49.828Z,0.00
2022-11-19T04:04:53.260Z,0.00
2022-11-19T04:05:56.768Z,0.00
2022-11-19T04:07:00.715Z,0.00
2022-11-19T04:08:04.344Z,0.00
2022-11-19T04:09:08.135Z,0.00
2022-11-19T04:10:14.765Z,0.00
2022-11-19T04:12:20.051Z,0.00
2022-11-19T04:13:23.630Z,0.00
2022-11-19T04:14:29.656Z,0.00
2022-11-19T04:15:33.374Z,0.00
2022-11-19T04:16:36.966Z,0.00
2022-11-19T04:17:40.561Z,0.00
2022-11-19T04:18:44.360Z,0.00
2022-11-19T04:19:48.358Z,0.00
2022-11-19T04:20:51.950Z,0.25
2022-11-19T04:21:55.951Z,0.00
2022-11-19T04:22:59.740Z,0.00
2022-11-19T04:24:03.340Z,0.00
2022-11-19T04:25:07.639Z,0.00
2022-11-19T04:26:11.593Z,0.00
2022-11-19T04:27:15.032Z,0.00
2022-11-19T04:28:18.313Z,0.00
2022-11-19T04:29:21.974Z,0.00
2022-11-19T04:30:26.006Z,0.00
2022-11-19T04:31:29.397Z,0.00
2022-11-19T04:32:32.576Z,0.00
2022-11-19T04:33:36.065Z,0.00
2022-11-19T04:34:39.561Z,0.00
2022-11-19T04:35:42.874Z,0.00
2022-11-19T04:36:46.229Z,0.00
2022-11-19T04:37:49.613Z,0.00
2022-11-19T04:38:53.312Z,0.00
2022-11-19T04:39:57.002Z,0.00
2022-11-19T04:41:00.795Z,0.00
2022-11-19T04:42:04.795Z,0.00
2022-11-19T04:43:09.240Z,0.00
2022-11-19T04:44:12.901Z,0.00
2022-11-19T04:45:16.291Z,0.25
2022-11-19T04:46:19.880Z,0.00
2022-11-19T04:47:23.992Z,0.75
2022-11-19T04:48:27.892Z,0.00
2022-11-19T04:49:31.375Z,0.00
2022-11-19T04:50:35.072Z,0.00
2022-11-19T04:51:38.961Z,0.00
2022-11-19T04:52:42.346Z,0.00
2022-11-19T04:53:46.368Z,0.00
2022-11-19T04:54:50.156Z,0.00
2022-11-19T04:55:53.534Z,0.00
2022-11-19T04:56:57.272Z,0.00
2022-11-19T04:58:00.720Z,0.00
2022-11-19T04:59:05.949Z,0.00
2022-11-19T05:00:09.646Z,0.00
2022-11-19T05:01:13.295Z,0.00
2022-11-19T05:02:16.743Z,0.00
2022-11-19T05:03:20.217Z,0.00
2022-11-19T05:04:24.424Z,0.00
2022-11-19T05:05:28.111Z,0.00
2022-11-19T05:06:32.827Z,0.00
2022-11-19T05:07:39.164Z,0.50
2022-11-19T05:08:42.884Z,0.25
2022-11-19T05:09:45.970Z,0.00
2022-11-19T05:10:49.738Z,0.00
2022-11-19T05:11:53.142Z,0.00
2022-11-19T05:13:00.315Z,0.00
2022-11-19T05:14:04.026Z,0.00
2022-11-19T05:15:07.838Z,0.00
2022-11-19T05:16:12.050Z,0.00
2022-11-19T05:17:19.524Z,0.00
2022-11-19T05:18:22.732Z,0.00
2022-11-19T05:19:26.269Z,0.00
2022-11-19T05:20:30.075Z,0.50
2022-11-19T05:21:33.858Z,0.50
2022-11-19T05:22:37.348Z,0.25
2022-11-19T05:23:41.347Z,0.25
2022-11-19T05:24:45.049Z,0.00
2022-11-19T05:25:48.943Z,0.00
2022-11-19T05:26:52.436Z,0.00
2022-11-19T05:27:56.230Z,0.00
2022-11-19T05:28:59.921Z,0.00
2022-11-19T05:30:03.834Z,0.50
2022-11-19T05:31:07.845Z,0.50
2022-11-19T05:32:11.618Z,0.00
2022-11-19T05:33:15.315Z,0.50
2022-11-19T05:34:19.059Z,0.50
2022-11-19T05:35:22.704Z,0.00
2022-11-19T05:36:26.595Z,0.00
2022-11-19T05:37:31.237Z,0.00
2022-11-19T05:38:34.908Z,0.00
2022-11-19T05:39:39.455Z,0.50
2022-11-19T05:40:42.937Z,0.50
2022-11-19T05:41:47.248Z,0.00
2022-11-19T05:42:50.909Z,0.00
2022-11-19T05:43:54.745Z,0.00
2022-11-19T05:44:59.025Z,0.00
2022-11-19T05:46:02.718Z,0.00
2022-11-19T05:47:07.020Z,0.00
2022-11-19T05:48:10.406Z,0.00
2022-11-19T05:49:14.924Z,0.00
2022-11-19T05:50:18.630Z,0.00
2022-11-19T05:51:22.202Z,0.00
2022-11-19T05:52:25.689Z,0.00
2022-11-19T05:53:29.901Z,0.50
2022-11-19T05:54:33.927Z,0.00
2022-11-19T05:55:37.809Z,0.00
2022-11-19T05:56:41.382Z,0.00
2022-11-19T05:57:45.589Z,0.50
2022-11-19T05:58:49.500Z,0.00
2022-11-19T05:59:53.003Z,0.50
2022-11-19T06:00:57.437Z,1.00
2022-11-19T06:02:03.651Z,1.00
2022-11-19T06:03:07.813Z,0.25
2022-11-19T06:04:11.033Z,0.00
2022-11-19T06:05:14.937Z,0.00
2022-11-19T06:06:18.629Z,0.00
2022-11-19T06:07:22.409Z,0.00
2022-11-19T06:08:26.229Z,0.00
2022-11-19T06:09:30.421Z,0.50
2022-11-19T06:10:34.011Z,0.50
2022-11-19T06:11:37.915Z,0.50
2022-11-19T06:12:45.375Z,0.00
2022-11-19T06:13:46.326Z,0.00
2022-11-19T06:14:50.124Z,0.50
2022-11-19T06:15:53.923Z,0.75
2022-11-19T06:16:57.433Z,0.50
2022-11-19T06:18:00.894Z,0.00
2022-11-19T06:19:05.614Z,0.00
2022-11-19T06:20:09.522Z,0.25
2022-11-19T06:21:12.897Z,0.00
2022-11-19T06:22:16.385Z,0.00
2022-11-19T06:23:20.192Z,0.00
2022-11-19T06:24:23.983Z,0.00
2022-11-19T06:25:27.268Z,0.50
2022-11-19T06:26:30.963Z,0.25
2022-11-19T06:27:34.246Z,0.50
2022-11-19T06:28:37.862Z,0.00
2022-11-19T06:29:41.024Z,0.25
2022-11-19T06:30:44.294Z,1.00
2022-11-19T06:31:47.790Z,0.50
2022-11-19T06:32:51.069Z,0.00
2022-11-19T06:33:54.564Z,0.00
2022-11-19T06:34:58.150Z,1.00
2022-11-19T06:36:01.168Z,0.00
2022-11-19T06:37:04.622Z,0.00
2022-11-19T06:38:08.146Z,0.50
2022-11-19T06:39:11.723Z,1.50
2022-11-19T06:40:15.394Z,1.00
2022-11-19T06:41:18.828Z,0.50
2022-11-19T06:42:22.272Z,0.50
2022-11-19T06:43:26.606Z,0.00
2022-11-19T06:44:29.970Z,1.00
2022-11-19T06:45:33.970Z,1.00
2022-11-19T06:46:37.353Z,0.50
2022-11-19T06:47:41.055Z,0.00
2022-11-19T06:48:44.440Z,0.00
2022-11-19T06:49:48.027Z,0.50
2022-11-19T06:50:51.511Z,0.75
2022-11-19T06:51:55.209Z,0.50
2022-11-19T06:52:58.485Z,0.75
2022-11-19T06:54:01.786Z,0.50
2022-11-19T06:55:06.031Z,0.00
2022-11-19T06:56:09.786Z,0.25
2022-11-19T06:57:13.601Z,0.50
2022-11-19T06:58:17.170Z,0.50
2022-11-19T06:59:21.059Z,0.00
2022-11-19T07:00:25.083Z,0.50
2022-11-19T07:01:29.588Z,0.25
2022-11-19T07:02:33.183Z,0.00
2022-11-19T07:03:36.471Z,0.50
2022-11-19T07:04:39.857Z,0.75
2022-11-19T07:05:43.855Z,1.00
2022-11-19T07:06:47.567Z,1.00
2022-11-19T07:07:50.932Z,1.00
2022-11-19T07:08:54.310Z,1.00
2022-11-19T07:09:57.609Z,0.50
2022-11-19T07:11:03.067Z,1.50
2022-11-19T07:12:06.625Z,1.50
2022-11-19T07:13:09.910Z,1.50
2022-11-19T07:14:13.349Z,1.50
2022-11-19T07:15:16.988Z,1.00
2022-11-19T07:16:20.315Z,1.00
2022-11-19T07:17:23.966Z,0.50
2022-11-19T07:18:28.073Z,0.50
2022-11-19T07:19:31.555Z,1.00
2022-11-19T07:20:35.163Z,0.50
2022-11-19T07:21:38.854Z,0.25
2022-11-19T07:22:42.444Z,0.25
2022-11-19T07:23:46.238Z,0.75
2022-11-19T07:24:50.226Z,0.00
2022-11-19T07:25:54.436Z,0.50
2022-11-19T07:26:57.860Z,0.50
2022-11-19T07:28:01.521Z,1.00
2022-11-19T07:29:05.205Z,1.00
2022-11-19T07:30:09.316Z,0.50
2022-11-19T07:31:13.211Z,1.00
2022-11-19T07:32:17.045Z,1.00
2022-11-19T07:33:20.712Z,1.50
2022-11-19T07:34:23.987Z,1.50
2022-11-19T07:35:27.718Z,1.00
2022-11-19T07:36:31.484Z,1.00
2022-11-19T07:37:35.472Z,1.00
2022-11-19T07:38:40.134Z,1.50
2022-11-19T07:39:43.585Z,1.50
2022-11-19T07:40:47.172Z,1.00
2022-11-19T07:41:51.069Z,1.00
2022-11-19T07:42:55.185Z,1.00
2022-11-19T07:43:58.871Z,1.25
2022-11-19T07:45:02.584Z,1.00
2022-11-19T07:46:06.354Z,1.00
2022-11-19T07:47:09.541Z,1.00
2022-11-19T07:48:12.926Z,1.00
2022-11-19T07:49:17.144Z,1.00
2022-11-19T07:50:20.935Z,0.50
2022-11-19T07:51:25.034Z,1.00
2022-11-19T07:52:28.828Z,1.25
2022-11-19T07:53:32.312Z,1.00
2022-11-19T07:54:35.846Z,1.60
2022-11-19T07:55:39.392Z,1.00
2022-11-19T07:56:44.214Z,1.00
2022-11-19T07:57:47.606Z,1.50
2022-11-19T07:58:51.607Z,1.00
2022-11-19T07:59:54.997Z,1.00
2022-11-19T08:00:58.483Z,1.50
2022-11-19T08:02:03.266Z,1.50
2022-11-19T08:03:07.144Z,1.50
2022-11-19T08:04:10.995Z,1.50
2022-11-19T08:05:14.591Z,1.50
2022-11-19T08:06:17.982Z,1.50
2022-11-19T08:07:22.017Z,1.00
2022-11-19T08:08:26.079Z,1.00
2022-11-19T08:09:30.386Z,1.25
2022-11-19T08:10:34.301Z,1.50
2022-11-19T08:11:37.779Z,1.00
2022-11-19T08:12:41.161Z,1.00
2022-11-19T08:13:44.667Z,1.00
2022-11-19T08:14:47.953Z,0.50
2022-11-19T08:15:51.424Z,0.75
2022-11-19T08:16:54.709Z,1.00
2022-11-19T08:17:58.718Z,1.00
2022-11-19T08:19:02.506Z,1.50
2022-11-19T08:20:07.943Z,1.50
2022-11-19T08:21:11.745Z,1.00
2022-11-19T08:22:15.439Z,1.50
2022-11-19T08:23:19.231Z,1.50
2022-11-19T08:24:22.740Z,1.50
2022-11-19T08:25:26.822Z,1.50
2022-11-19T08:26:30.304Z,1.25
2022-11-19T08:27:34.001Z,1.00
2022-11-19T08:28:37.595Z,1.50
2022-11-19T08:29:41.297Z,1.00
2022-11-19T08:30:44.876Z,1.25
2022-11-19T08:31:49.079Z,1.00
2022-11-19T08:32:53.203Z,1.25
2022-11-19T08:33:56.570Z,1.50
2022-11-19T08:35:00.168Z,1.00
2022-11-19T08:36:03.548Z,1.50
2022-11-19T08:37:07.040Z,2.00
2022-11-19T08:38:10.636Z,2.00
2022-11-19T08:39:14.224Z,2.00
2022-11-19T08:40:17.726Z,2.00
2022-11-19T08:41:21.617Z,1.50
2022-11-19T08:42:26.837Z,1.50
2022-11-19T08:43:30.541Z,1.50
2022-11-19T08:44:34.126Z,2.20
2022-11-19T08:45:37.934Z,2.50
2022-11-19T08:46:41.619Z,2.00
2022-11-19T08:47:45.307Z,2.00
2022-11-19T08:48:48.915Z,2.00
2022-11-19T08:49:52.192Z,1.50
2022-11-19T08:50:55.908Z,2.00
2022-11-19T08:52:00.192Z,1.75
2022-11-19T08:53:03.883Z,2.00
2022-11-19T08:54:07.054Z,2.00
2022-11-19T08:55:10.788Z,2.00
2022-11-19T08:56:17.919Z,1.50
2022-11-19T08:57:17.732Z,1.75
2022-11-19T08:58:25.589Z,2.75
2022-11-19T08:59:28.417Z,2.50
2022-11-19T09:00:34.104Z,2.00
2022-11-19T09:01:36.831Z,1.50
2022-11-19T09:02:39.552Z,1.75
2022-11-19T09:03:44.375Z,3.00
2022-11-19T09:04:49.649Z,3.50
2022-11-19T09:05:52.349Z,2.50
2022-11-19T09:06:56.704Z,2.00
2022-11-19T09:08:08.375Z,2.00
2022-11-19T09:09:30.516Z,2.00
2022-11-19T09:10:34.825Z,2.25
2022-11-19T09:11:42.410Z,2.50
2022-11-19T09:12:42.048Z,2.50
2022-11-19T09:13:46.242Z,2.00
2022-11-19T09:14:48.851Z,2.00
2022-11-19T09:15:57.499Z,2.00
2022-11-19T09:17:00.249Z,2.50
2022-11-19T09:18:02.999Z,2.00
2022-11-19T09:19:09.854Z,1.50
2022-11-19T09:20:12.762Z,2.50
2022-11-19T09:21:15.753Z,2.00
2022-11-19T09:22:23.643Z,2.00
2022-11-19T09:23:28.889Z,2.25
2022-11-19T09:24:31.915Z,3.00
2022-11-19T09:25:36.188Z,3.00
2022-11-19T09:26:40.624Z,2.50
2022-11-19T09:27:43.688Z,2.00
2022-11-19T09:28:46.603Z,2.50
2022-11-19T09:29:49.976Z,2.50
2022-11-19T09:30:57.536Z,2.00
2022-11-19T09:32:01.725Z,2.50
2022-11-19T09:33:15.337Z,2.50
2022-11-19T09:34:18.735Z,2.00
2022-11-19T09:35:22.929Z,2.00
2022-11-19T09:36:34.995Z,2.50
2022-11-19T09:37:37.812Z,3.25
2022-11-19T09:38:45.525Z,2.25
2022-11-19T09:40:04.204Z,2.50
2022-11-19T09:42:30.342Z,2.50
2022-11-19T09:44:52.919Z,2.50
2022-11-19T09:47:16.040Z,2.75
2022-11-19T09:48:18.697Z,3.00
2022-11-19T09:49:21.542Z,2.50
2022-11-19T09:50:42.282Z,2.50
2022-11-19T09:51:52.093Z,3.00
2022-11-19T09:52:55.394Z,3.00
2022-11-19T09:55:22.619Z,3.50
2022-11-19T09:56:25.903Z,3.00
2022-11-19T09:57:29.213Z,3.00
2022-11-19T09:58:34.054Z,3.25
2022-11-19T09:59:45.930Z,3.00
2022-11-19T10:00:48.706Z,4.00
2022-11-19T10:01:53.260Z,4.00
2022-11-19T10:02:55.517Z,3.50
2022-11-19T10:03:58.121Z,3.50
2022-11-19T10:05:00.753Z,3.25
2022-11-19T10:06:11.118Z,3.50
2022-11-19T10:07:13.836Z,4.50
2022-11-19T10:08:16.560Z,4.00
2022-11-19T10:09:19.549Z,4.50
2022-11-19T10:10:22.308Z,3.00
2022-11-19T10:11:25.235Z,4.00
2022-11-19T10:13:51.919Z,4.50
2022-11-19T10:14:54.584Z,4.50
2022-11-19T10:15:58.569Z,4.50
2022-11-19T10:17:03.969Z,4.50
2022-11-19T10:18:06.932Z,5.00
2022-11-19T10:20:29.845Z,4.00
2022-11-19T10:21:32.460Z,3.50
2022-11-19T10:22:37.901Z,3.50
2022-11-19T10:23:40.571Z,3.50
2022-11-19T10:24:45.098Z,3.50
2022-11-19T10:27:10.544Z,3.00
2022-11-19T10:28:13.314Z,2.50
2022-11-19T10:29:29.483Z,3.00
2022-11-19T10:31:54.233Z,3.25
2022-11-19T10:35:44.355Z,3.00
2022-11-19T10:39:39.096Z,3.75
2022-11-19T10:42:03.182Z,2.50
2022-11-19T10:43:07.052Z,2.50
2022-11-19T10:44:18.992Z,2.25
2022-11-19T10:47:00.228Z,3.00
2022-11-19T10:48:07.615Z,3.00
2022-11-19T10:49:07.184Z,3.00
2022-11-19T10:50:11.372Z,3.50
2022-11-19T10:51:31.850Z,3.00
2022-11-19T10:55:22.926Z,2.50
2022-11-19T10:56:25.842Z,3.00
2022-11-19T10:57:28.901Z,4.00
2022-11-19T10:58:41.141Z,2.50
2022-11-19T10:59:50.809Z,2.50
2022-11-19T11:00:53.798Z,3.50
2022-11-19T11:01:56.554Z,2.40
2022-11-19T11:03:03.992Z,2.50
2022-11-19T11:04:06.789Z,2.50
2022-11-19T11:06:32.153Z,3.00
2022-11-19T11:10:17.145Z,2.50
2022-11-19T11:11:29.754Z,3.00
2022-11-19T11:12:32.478Z,2.50
2022-11-19T11:13:36.065Z,2.50
2022-11-19T11:14:38.937Z,2.50
2022-11-19T11:15:41.909Z,3.00
2022-11-19T11:16:47.703Z,3.50
2022-11-19T11:17:50.484Z,3.00
2022-11-19T11:18:54.214Z,2.50
2022-11-19T11:19:58.059Z,3.50
2022-11-19T11:21:01.931Z,3.00
2022-11-19T11:22:04.434Z,3.00
2022-11-19T11:23:13.215Z,3.00
2022-11-19T11:24:17.882Z,2.50
2022-11-19T11:25:29.827Z,3.00
2022-11-19T11:26:37.208Z,3.00
2022-11-19T11:27:40.218Z,3.00
2022-11-19T11:28:49.226Z,3.00
2022-11-19T11:29:51.890Z,2.50
2022-11-19T11:30:54.500Z,2.50
2022-11-19T11:32:00.632Z,3.25
2022-11-19T11:33:07.820Z,2.50
2022-11-19T11:34:11.001Z,2.50
2022-11-19T11:35:16.208Z,2.50
2022-11-19T11:36:18.732Z,3.00
2022-11-19T11:37:24.655Z,3.00
2022-11-19T11:39:48.547Z,1.50
2022-11-19T11:41:11.746Z,2.50
2022-11-19T11:42:07.067Z,2.00
2022-11-19T11:44:23.165Z,2.50
2022-11-19T11:45:28.968Z,2.00
2022-11-19T11:46:31.614Z,2.50
2022-11-19T11:47:34.433Z,2.00
2022-11-19T11:48:37.095Z,2.00
2022-11-19T11:49:39.697Z,2.00
2022-11-19T11:50:42.219Z,2.00
2022-11-19T11:51:44.809Z,2.00
2022-11-19T11:52:47.451Z,2.00
2022-11-19T11:53:50.124Z,2.50
2022-11-19T11:54:52.772Z,2.50
2022-11-19T11:55:55.455Z,2.50
2022-11-19T11:56:58.100Z,2.50
2022-11-19T11:58:00.751Z,2.00
2022-11-19T11:59:03.866Z,2.00
2022-11-19T12:00:06.613Z,3.00
2022-11-19T12:01:12.802Z,3.00
2022-11-19T12:02:18.154Z,3.00
2022-11-19T12:03:20.848Z,2.00
2022-11-19T12:04:23.392Z,2.00
2022-11-19T12:05:26.064Z,2.00
2022-11-19T12:06:28.600Z,2.50
2022-11-19T12:07:31.269Z,2.50
2022-11-19T12:08:33.889Z,2.50
2022-11-19T12:09:36.548Z,2.50
2022-11-19T12:10:39.216Z,2.00
2022-11-19T12:11:41.859Z,2.00
2022-11-19T12:12:44.393Z,1.75
2022-11-19T12:13:49.890Z,1.50
2022-11-19T12:14:53.407Z,1.50
2022-11-19T12:15:55.955Z,1.50
2022-11-19T12:17:10.449Z,2.25
2022-11-19T12:18:13.133Z,2.00
2022-11-19T12:19:15.801Z,2.00
2022-11-19T12:20:20.093Z,2.00
2022-11-19T12:22:44.581Z,2.00
2022-11-19T12:23:47.420Z,2.50
2022-11-19T12:24:50.276Z,3.50
2022-11-19T12:25:53.108Z,3.00
2022-11-19T12:26:55.706Z,3.00
2022-11-19T12:27:58.393Z,2.75
2022-11-19T12:29:01.047Z,1.50
2022-11-19T12:30:03.698Z,2.00
2022-11-19T12:32:29.892Z,2.00
2022-11-19T12:33:32.813Z,2.25
2022-11-19T12:34:35.805Z,2.00
2022-11-19T12:35:38.779Z,1.75
2022-11-19T12:36:46.816Z,1.50
2022-11-19T12:37:49.712Z,1.50
2022-11-19T12:38:52.492Z,2.20
2022-11-19T12:39:55.185Z,2.50
2022-11-19T12:40:57.795Z,2.50
2022-11-19T12:42:00.523Z,2.00
2022-11-19T12:43:03.177Z,3.00
2022-11-19T12:44:05.926Z,2.25
2022-11-19T12:45:08.767Z,3.00
2022-11-19T12:46:11.662Z,2.50
2022-11-19T12:47:14.652Z,2.00
2022-11-19T12:48:17.531Z,2.50
2022-11-19T12:49:20.606Z,2.50
2022-11-19T12:50:23.950Z,3.00
2022-11-19T12:51:26.755Z,3.00
2022-11-19T12:52:29.828Z,2.50
2022-11-19T12:53:34.414Z,3.00
2022-11-19T12:54:37.221Z,2.50
2022-11-19T12:55:40.274Z,3.00
2022-11-19T12:56:48.045Z,3.00
2022-11-19T12:57:50.968Z,3.25
2022-11-19T12:58:53.725Z,2.50
2022-11-19T12:59:56.594Z,2.00
2022-11-19T13:00:59.271Z,2.00
2022-11-19T13:02:01.990Z,2.00
2022-11-19T13:03:04.657Z,2.00
2022-11-19T13:04:08.451Z,2.00
2022-11-19T13:05:11.297Z,2.50
2022-11-19T13:06:17.813Z,3.00
2022-11-19T13:07:18.287Z,3.00
2022-11-19T13:08:20.894Z,2.75
2022-11-19T13:09:24.439Z,2.50
2022-11-19T13:10:27.583Z,2.25
2022-11-19T13:11:30.392Z,2.00
2022-11-19T13:12:34.783Z,2.50
2022-11-19T13:13:37.782Z,2.25
2022-11-19T13:14:40.659Z,2.75
2022-11-19T13:15:43.612Z,2.50
2022-11-19T13:16:46.426Z,3.00
2022-11-19T13:17:49.294Z,2.50
2022-11-19T13:18:52.167Z,2.50
2022-11-19T13:19:55.093Z,3.00
2022-11-19T13:20:57.696Z,2.25
2022-11-19T13:22:00.332Z,2.50
2022-11-19T13:23:03.012Z,3.00
2022-11-19T13:24:05.646Z,2.50
2022-11-19T13:25:08.579Z,2.75
2022-11-19T13:26:11.573Z,3.00
2022-11-19T13:27:16.482Z,3.00
2022-11-19T13:28:18.532Z,3.00
2022-11-19T13:29:21.620Z,3.00
2022-11-19T13:30:25.012Z,3.50
2022-11-19T13:31:27.998Z,3.25
2022-11-19T13:32:30.911Z,2.50
2022-11-19T13:33:33.809Z,2.50
2022-11-19T13:34:36.697Z,3.25
2022-11-19T13:35:39.495Z,3.00
2022-11-19T13:36:42.377Z,3.00
2022-11-19T13:37:45.104Z,3.00
2022-11-19T13:38:47.652Z,3.00
2022-11-19T13:39:50.310Z,3.00
2022-11-19T13:40:52.946Z,3.00
2022-11-19T13:41:55.558Z,3.00
2022-11-19T13:43:24.841Z,3.50
2022-11-19T13:44:02.053Z,3.50
2022-11-19T13:45:04.767Z,3.50
2022-11-19T13:46:07.334Z,3.50
2022-11-19T13:47:09.898Z,3.00
2022-11-19T13:48:12.702Z,3.00
2022-11-19T13:49:15.549Z,2.50
2022-11-19T13:50:18.444Z,3.00
2022-11-19T13:51:21.424Z,2.50
2022-11-19T13:52:24.219Z,2.50
2022-11-19T13:53:27.770Z,2.50
2022-11-19T13:54:30.647Z,2.00
2022-11-19T13:55:33.566Z,2.00
2022-11-19T13:56:36.354Z,2.00
2022-11-19T13:57:39.156Z,2.50
2022-11-19T13:58:42.031Z,2.50
2022-11-19T13:59:44.966Z,3.00
2022-11-19T14:00:47.838Z,2.50
2022-11-19T14:01:50.748Z,2.00
2022-11-19T14:02:53.490Z,2.00
2022-11-19T14:03:56.531Z,2.00
2022-11-19T14:04:59.205Z,2.00
2022-11-19T14:06:01.902Z,2.50
2022-11-19T14:07:04.592Z,2.50
2022-11-19T14:08:07.564Z,2.00
2022-11-19T14:09:10.493Z,1.50
2022-11-19T14:10:13.422Z,1.50
2022-11-19T14:11:16.280Z,2.50
2022-11-19T14:12:19.166Z,2.00
2022-11-19T14:13:22.015Z,1.50
2022-11-19T14:14:24.892Z,1.50
2022-11-19T14:15:27.771Z,1.50
2022-11-19T14:16:33.551Z,2.25
2022-11-19T14:17:34.655Z,2.00
2022-11-19T14:18:37.593Z,1.50
2022-11-19T14:19:40.464Z,1.50
2022-11-19T14:20:43.291Z,2.00
2022-11-19T14:21:46.076Z,2.00
2022-11-19T14:22:49.022Z,2.00
2022-11-19T14:23:51.846Z,2.00
2022-11-19T14:24:54.848Z,2.00
2022-11-19T14:25:57.773Z,2.25
2022-11-19T14:27:00.538Z,2.00
2022-11-19T14:28:03.220Z,2.50
2022-11-19T14:29:05.826Z,1.75
2022-11-19T14:30:08.527Z,2.00
2022-11-19T14:31:11.616Z,2.00
2022-11-19T14:32:14.475Z,2.00
2022-11-19T14:33:17.629Z,2.00
2022-11-19T14:34:22.387Z,1.75
2022-11-19T14:35:25.230Z,1.50
2022-11-19T14:36:28.157Z,1.50
2022-11-19T14:37:30.995Z,3.00
2022-11-19T14:38:33.855Z,2.50
2022-11-19T14:39:36.707Z,2.00
2022-11-19T14:40:43.677Z,2.75
2022-11-19T14:41:43.629Z,1.50
2022-11-19T14:42:46.460Z,1.50
2022-11-19T14:43:49.390Z,2.00
2022-11-19T14:44:52.341Z,2.00
2022-11-19T14:45:55.183Z,2.50
2022-11-19T14:46:57.765Z,2.00
2022-11-19T14:48:00.426Z,2.00
2022-11-19T14:49:03.168Z,2.00
2022-11-19T14:50:05.959Z,2.00
2022-11-19T14:51:08.660Z,2.00
2022-11-19T14:52:11.365Z,2.00
2022-11-19T14:53:14.023Z,2.00
2022-11-19T14:54:16.714Z,2.50
2022-11-19T14:55:19.412Z,2.50
2022-11-19T14:56:22.253Z,2.00
2022-11-19T14:57:24.963Z,2.50
2022-11-19T14:58:27.936Z,2.00
2022-11-19T14:59:30.854Z,2.50
2022-11-19T15:00:33.739Z,2.75
2022-11-19T15:01:36.606Z,2.50
2022-11-19T15:02:39.536Z,2.00
2022-11-19T15:03:42.564Z,1.50
2022-11-19T15:04:45.485Z,2.00
2022-11-19T15:05:48.433Z,2.00
2022-11-19T15:06:51.375Z,2.50
2022-11-19T15:07:56.394Z,2.50
2022-11-19T15:08:57.833Z,2.50
2022-11-19T15:10:00.517Z,3.00
2022-11-19T15:11:03.220Z,3.00
2022-11-19T15:12:05.834Z,3.00
2022-11-19T15:13:08.507Z,3.00
2022-11-19T15:14:11.144Z,3.00
2022-11-19T15:15:13.829Z,2.50
2022-11-19T15:16:16.448Z,2.50
2022-11-19T15:17:19.052Z,3.00
2022-11-19T15:18:21.815Z,2.00
2022-11-19T15:19:24.424Z,2.75
2022-11-19T15:20:27.610Z,2.50
2022-11-19T15:21:30.219Z,2.50
2022-11-19T15:22:32.845Z,2.00
2022-11-19T15:23:35.543Z,2.50
2022-11-19T15:24:38.152Z,2.50
2022-11-19T15:25:40.773Z,3.00
2022-11-19T15:26:43.396Z,2.50
2022-11-19T15:27:46.092Z,2.00
2022-11-19T15:28:48.762Z,2.75
2022-11-19T15:29:51.360Z,3.40
2022-11-19T15:30:53.939Z,1.50
2022-11-19T15:31:56.594Z,1.50
2022-11-19T15:32:59.224Z,2.50
2022-11-19T15:34:01.769Z,3.00
2022-11-19T15:35:10.976Z,3.00
2022-11-19T15:36:08.152Z,2.75
2022-11-19T15:37:11.188Z,3.00
2022-11-19T15:38:19.715Z,3.00
2022-11-19T15:39:18.478Z,3.00
2022-11-19T15:40:21.257Z,3.25
2022-11-19T15:41:24.207Z,3.50
2022-11-19T15:42:27.037Z,3.25
2022-11-19T15:43:30.202Z,3.00
2022-11-19T15:44:33.076Z,3.00
2022-11-19T15:45:35.936Z,3.00
2022-11-19T15:46:38.550Z,3.00
2022-11-19T15:47:41.245Z,3.00
2022-11-19T15:48:43.830Z,3.75
2022-11-19T15:49:46.522Z,3.50
2022-11-19T15:50:49.134Z,3.00
2022-11-19T15:51:51.818Z,3.00
2022-11-19T15:52:54.360Z,3.50
2022-11-19T15:53:56.960Z,3.25